sensor_id;sensor_type;location;lat;lon;timestamp;P1;durP1;ratioP1;P2;durP2;ratioP2
28766;SDS011;15921;52.034;20.650;2023-02-04T00:01:35;36.35;;;16.88;;
28766;SDS011;15921;52.034;20.650;2023-02-04T00:04:01;39.03;;;18.00;;
28766;SDS011;15921;52.034;20.650;2023-02-04T00:06:27;32.45;;;16.05;;
28766;SDS011;15921;52.034;20.650;2023-02-04T00:08:52;35.17;;;16.10;;
28766;SDS011;15921;52.034;20.650;2023-02-04T00:11:18;35.83;;;16.40;;
28766;SDS011;15921;52.034;20.650;2023-02-04T00:13:44;34.92;;;16.20;;
28766;SDS011;15921;52.034;20.650;2023-02-04T00:16:09;29.85;;;14.88;;
28766;SDS011;15921;52.034;20.650;2023-02-04T00:18:35;32.30;;;15.70;;
28766;SDS011;15921;52.034;20.650;2023-02-04T00:21:00;31.50;;;14.43;;
28766;SDS011;15921;52.034;20.650;2023-02-04T00:23:26;32.53;;;14.10;;
28766;SDS011;15921;52.034;20.650;2023-02-04T00:25:52;31.65;;;14.55;;
28766;SDS011;15921;52.034;20.650;2023-02-04T00:28:17;27.77;;;14.15;;
28766;SDS011;15921;52.034;20.650;2023-02-04T00:30:43;25.83;;;12.70;;
28766;SDS011;15921;52.034;20.650;2023-02-04T00:33:09;30.63;;;12.57;;
28766;SDS011;15921;52.034;20.650;2023-02-04T00:35:34;26.55;;;13.13;;
28766;SDS011;15921;52.034;20.650;2023-02-04T00:38:03;31.92;;;12.32;;
28766;SDS011;15921;52.034;20.650;2023-02-04T00:40:30;23.95;;;13.02;;
28766;SDS011;15921;52.034;20.650;2023-02-04T00:42:56;29.05;;;13.73;;
28766;SDS011;15921;52.034;20.650;2023-02-04T00:45:22;26.42;;;12.38;;
28766;SDS011;15921;52.034;20.650;2023-02-04T00:47:48;21.13;;;10.90;;
28766;SDS011;15921;52.034;20.650;2023-02-04T00:50:14;21.55;;;10.45;;
28766;SDS011;15921;52.034;20.650;2023-02-04T00:52:40;24.45;;;10.68;;
28766;SDS011;15921;52.034;20.650;2023-02-04T00:55:05;25.10;;;12.55;;
28766;SDS011;15921;52.034;20.650;2023-02-04T00:57:32;21.25;;;11.23;;
28766;SDS011;15921;52.034;20.650;2023-02-04T00:59:58;22.48;;;11.40;;
28766;SDS011;15921;52.034;20.650;2023-02-04T01:02:24;20.40;;;10.25;;
28766;SDS011;15921;52.034;20.650;2023-02-04T01:04:49;22.80;;;11.30;;
28766;SDS011;15921;52.034;20.650;2023-02-04T01:07:15;23.67;;;11.35;;
28766;SDS011;15921;52.034;20.650;2023-02-04T01:09:41;23.92;;;10.73;;
28766;SDS011;15921;52.034;20.650;2023-02-04T01:12:07;23.30;;;11.52;;
28766;SDS011;15921;52.034;20.650;2023-02-04T01:14:32;24.10;;;11.93;;
28766;SDS011;15921;52.034;20.650;2023-02-04T01:16:58;21.08;;;10.93;;
28766;SDS011;15921;52.034;20.650;2023-02-04T01:19:23;19.02;;;10.60;;
28766;SDS011;15921;52.034;20.650;2023-02-04T01:21:49;24.10;;;11.25;;
28766;SDS011;15921;52.034;20.650;2023-02-04T01:24:15;20.40;;;11.50;;
28766;SDS011;15921;52.034;20.650;2023-02-04T01:26:40;23.83;;;10.55;;
28766;SDS011;15921;52.034;20.650;2023-02-04T01:29:08;20.25;;;11.05;;
28766;SDS011;15921;52.034;20.650;2023-02-04T01:31:35;23.50;;;11.05;;
28766;SDS011;15921;52.034;20.650;2023-02-04T01:34:00;23.08;;;9.55;;
28766;SDS011;15921;52.034;20.650;2023-02-04T01:36:26;22.65;;;10.52;;
28766;SDS011;15921;52.034;20.650;2023-02-04T01:38:52;24.75;;;9.70;;
28766;SDS011;15921;52.034;20.650;2023-02-04T01:41:18;21.90;;;10.48;;
28766;SDS011;15921;52.034;20.650;2023-02-04T01:43:44;23.13;;;11.73;;
28766;SDS011;15921;52.034;20.650;2023-02-04T01:46:11;18.60;;;9.18;;
28766;SDS011;15921;52.034;20.650;2023-02-04T01:48:37;23.35;;;11.23;;
28766;SDS011;15921;52.034;20.650;2023-02-04T01:51:06;23.52;;;10.20;;
28766;SDS011;15921;52.034;20.650;2023-02-04T01:53:35;18.27;;;9.77;;
28766;SDS011;15921;52.034;20.650;2023-02-04T01:56:05;18.08;;;9.60;;
28766;SDS011;15921;52.034;20.650;2023-02-04T01:58:40;20.83;;;9.60;;
28766;SDS011;15921;52.034;20.650;2023-02-04T02:01:10;17.20;;;9.45;;
28766;SDS011;15921;52.034;20.650;2023-02-04T02:03:56;18.73;;;9.85;;
28766;SDS011;15921;52.034;20.650;2023-02-04T02:06:22;18.80;;;10.07;;
28766;SDS011;15921;52.034;20.650;2023-02-04T02:08:48;19.50;;;10.07;;
28766;SDS011;15921;52.034;20.650;2023-02-04T02:11:13;18.73;;;10.15;;
28766;SDS011;15921;52.034;20.650;2023-02-04T02:13:39;20.30;;;10.05;;
28766;SDS011;15921;52.034;20.650;2023-02-04T02:16:05;19.88;;;10.10;;
28766;SDS011;15921;52.034;20.650;2023-02-04T02:18:31;20.08;;;10.70;;
28766;SDS011;15921;52.034;20.650;2023-02-04T02:20:57;21.35;;;10.80;;
28766;SDS011;15921;52.034;20.650;2023-02-04T02:26:21;21.65;;;11.10;;
28766;SDS011;15921;52.034;20.650;2023-02-04T02:28:48;19.42;;;10.35;;
28766;SDS011;15921;52.034;20.650;2023-02-04T02:31:15;24.60;;;10.75;;
28766;SDS011;15921;52.034;20.650;2023-02-04T02:33:43;21.30;;;11.00;;
28766;SDS011;15921;52.034;20.650;2023-02-04T02:36:10;37.92;;;11.18;;
28766;SDS011;15921;52.034;20.650;2023-02-04T02:38:36;20.95;;;11.15;;
28766;SDS011;15921;52.034;20.650;2023-02-04T02:41:03;22.42;;;11.63;;
28766;SDS011;15921;52.034;20.650;2023-02-04T02:43:29;27.35;;;12.63;;
28766;SDS011;15921;52.034;20.650;2023-02-04T02:45:56;22.60;;;11.52;;
28766;SDS011;15921;52.034;20.650;2023-02-04T02:48:24;21.10;;;10.55;;
28766;SDS011;15921;52.034;20.650;2023-02-04T02:50:50;23.00;;;11.35;;
28766;SDS011;15921;52.034;20.650;2023-02-04T02:53:17;26.42;;;12.13;;
28766;SDS011;15921;52.034;20.650;2023-02-04T02:55:44;24.85;;;11.73;;
28766;SDS011;15921;52.034;20.650;2023-02-04T02:58:13;21.98;;;10.85;;
28766;SDS011;15921;52.034;20.650;2023-02-04T03:00:47;25.00;;;11.23;;
28766;SDS011;15921;52.034;20.650;2023-02-04T03:03:14;21.65;;;11.55;;
28766;SDS011;15921;52.034;20.650;2023-02-04T03:05:44;20.58;;;10.65;;
28766;SDS011;15921;52.034;20.650;2023-02-04T03:08:12;23.67;;;10.00;;
28766;SDS011;15921;52.034;20.650;2023-02-04T03:10:40;20.95;;;10.50;;
28766;SDS011;15921;52.034;20.650;2023-02-04T03:13:07;21.42;;;11.45;;
28766;SDS011;15921;52.034;20.650;2023-02-04T03:15:34;20.60;;;10.55;;
28766;SDS011;15921;52.034;20.650;2023-02-04T03:18:00;24.33;;;10.48;;
28766;SDS011;15921;52.034;20.650;2023-02-04T03:20:26;25.98;;;10.73;;
28766;SDS011;15921;52.034;20.650;2023-02-04T03:22:54;17.05;;;9.35;;
28766;SDS011;15921;52.034;20.650;2023-02-04T03:25:20;22.90;;;10.55;;
28766;SDS011;15921;52.034;20.650;2023-02-04T03:27:50;22.08;;;9.70;;
28766;SDS011;15921;52.034;20.650;2023-02-04T03:30:18;21.08;;;9.82;;
28766;SDS011;15921;52.034;20.650;2023-02-04T03:32:44;21.33;;;9.05;;
28766;SDS011;15921;52.034;20.650;2023-02-04T03:35:10;20.58;;;9.68;;
28766;SDS011;15921;52.034;20.650;2023-02-04T03:37:36;19.05;;;9.00;;
28766;SDS011;15921;52.034;20.650;2023-02-04T03:40:02;16.92;;;8.70;;
28766;SDS011;15921;52.034;20.650;2023-02-04T03:42:28;21.83;;;10.88;;
28766;SDS011;15921;52.034;20.650;2023-02-04T03:44:54;16.05;;;9.18;;
28766;SDS011;15921;52.034;20.650;2023-02-04T03:47:19;21.00;;;9.07;;
28766;SDS011;15921;52.034;20.650;2023-02-04T03:49:45;17.80;;;9.35;;
28766;SDS011;15921;52.034;20.650;2023-02-04T03:52:11;17.33;;;8.60;;
28766;SDS011;15921;52.034;20.650;2023-02-04T03:54:36;18.77;;;9.40;;
28766;SDS011;15921;52.034;20.650;2023-02-04T03:57:02;19.98;;;9.30;;
28766;SDS011;15921;52.034;20.650;2023-02-04T03:59:28;20.33;;;9.88;;
28766;SDS011;15921;52.034;20.650;2023-02-04T04:01:53;19.33;;;8.90;;
28766;SDS011;15921;52.034;20.650;2023-02-04T04:04:19;20.35;;;10.35;;
28766;SDS011;15921;52.034;20.650;2023-02-04T04:06:44;23.73;;;9.50;;
28766;SDS011;15921;52.034;20.650;2023-02-04T04:09:10;17.02;;;9.30;;
28766;SDS011;15921;52.034;20.650;2023-02-04T04:11:36;20.23;;;9.48;;
28766;SDS011;15921;52.034;20.650;2023-02-04T04:14:01;20.73;;;8.60;;
28766;SDS011;15921;52.034;20.650;2023-02-04T04:16:27;20.67;;;8.93;;
28766;SDS011;15921;52.034;20.650;2023-02-04T04:18:53;17.05;;;8.48;;
28766;SDS011;15921;52.034;20.650;2023-02-04T04:21:19;19.50;;;8.60;;
28766;SDS011;15921;52.034;20.650;2023-02-04T04:23:45;19.80;;;8.85;;
28766;SDS011;15921;52.034;20.650;2023-02-04T04:26:10;16.15;;;7.85;;
28766;SDS011;15921;52.034;20.650;2023-02-04T04:28:36;15.18;;;8.00;;
28766;SDS011;15921;52.034;20.650;2023-02-04T04:31:01;17.70;;;7.95;;
28766;SDS011;15921;52.034;20.650;2023-02-04T04:33:27;17.08;;;8.10;;
28766;SDS011;15921;52.034;20.650;2023-02-04T04:35:53;14.95;;;7.85;;
28766;SDS011;15921;52.034;20.650;2023-02-04T04:38:19;20.52;;;8.98;;
28766;SDS011;15921;52.034;20.650;2023-02-04T04:40:44;17.75;;;8.60;;
28766;SDS011;15921;52.034;20.650;2023-02-04T04:43:10;18.70;;;8.57;;
28766;SDS011;15921;52.034;20.650;2023-02-04T04:45:36;17.77;;;8.65;;
28766;SDS011;15921;52.034;20.650;2023-02-04T04:48:02;18.35;;;7.95;;
28766;SDS011;15921;52.034;20.650;2023-02-04T04:50:27;13.95;;;7.95;;
28766;SDS011;15921;52.034;20.650;2023-02-04T04:52:53;16.38;;;8.52;;
28766;SDS011;15921;52.034;20.650;2023-02-04T04:55:19;18.77;;;8.35;;
28766;SDS011;15921;52.034;20.650;2023-02-04T04:57:44;20.25;;;8.15;;
28766;SDS011;15921;52.034;20.650;2023-02-04T05:00:15;16.50;;;8.10;;
28766;SDS011;15921;52.034;20.650;2023-02-04T05:02:42;19.67;;;8.52;;
28766;SDS011;15921;52.034;20.650;2023-02-04T05:05:08;23.38;;;9.23;;
28766;SDS011;15921;52.034;20.650;2023-02-04T05:07:34;17.50;;;7.93;;
28766;SDS011;15921;52.034;20.650;2023-02-04T05:10:01;23.75;;;8.98;;
28766;SDS011;15921;52.034;20.650;2023-02-04T05:12:27;16.77;;;8.10;;
28766;SDS011;15921;52.034;20.650;2023-02-04T05:14:52;21.27;;;9.70;;
28766;SDS011;15921;52.034;20.650;2023-02-04T05:17:18;21.08;;;9.48;;
28766;SDS011;15921;52.034;20.650;2023-02-04T05:19:44;24.33;;;10.55;;
28766;SDS011;15921;52.034;20.650;2023-02-04T05:22:09;16.52;;;8.60;;
28766;SDS011;15921;52.034;20.650;2023-02-04T05:24:35;16.60;;;8.60;;
28766;SDS011;15921;52.034;20.650;2023-02-04T05:27:01;19.52;;;8.38;;
28766;SDS011;15921;52.034;20.650;2023-02-04T05:29:26;18.05;;;8.73;;
28766;SDS011;15921;52.034;20.650;2023-02-04T05:31:52;18.42;;;8.80;;
28766;SDS011;15921;52.034;20.650;2023-02-04T05:34:17;17.35;;;8.65;;
28766;SDS011;15921;52.034;20.650;2023-02-04T05:36:43;19.75;;;8.85;;
28766;SDS011;15921;52.034;20.650;2023-02-04T05:39:09;18.05;;;9.10;;
28766;SDS011;15921;52.034;20.650;2023-02-04T05:41:34;15.82;;;8.18;;
28766;SDS011;15921;52.034;20.650;2023-02-04T05:44:00;15.98;;;7.82;;
28766;SDS011;15921;52.034;20.650;2023-02-04T05:46:26;17.90;;;9.00;;
28766;SDS011;15921;52.034;20.650;2023-02-04T05:48:51;16.58;;;8.98;;
28766;SDS011;15921;52.034;20.650;2023-02-04T05:51:17;13.60;;;7.78;;
28766;SDS011;15921;52.034;20.650;2023-02-04T05:53:43;18.08;;;9.05;;
28766;SDS011;15921;52.034;20.650;2023-02-04T05:56:08;19.83;;;8.45;;
28766;SDS011;15921;52.034;20.650;2023-02-04T05:58:34;14.60;;;8.00;;
28766;SDS011;15921;52.034;20.650;2023-02-04T06:01:00;15.88;;;7.97;;
28766;SDS011;15921;52.034;20.650;2023-02-04T06:03:26;17.10;;;7.85;;
28766;SDS011;15921;52.034;20.650;2023-02-04T06:05:53;14.27;;;7.82;;
28766;SDS011;15921;52.034;20.650;2023-02-04T06:08:19;18.55;;;7.95;;
28766;SDS011;15921;52.034;20.650;2023-02-04T06:10:45;12.48;;;6.90;;
28766;SDS011;15921;52.034;20.650;2023-02-04T06:13:10;17.10;;;7.75;;
28766;SDS011;15921;52.034;20.650;2023-02-04T06:15:36;15.05;;;6.88;;
28766;SDS011;15921;52.034;20.650;2023-02-04T06:18:02;17.42;;;7.20;;
28766;SDS011;15921;52.034;20.650;2023-02-04T06:20:27;18.55;;;7.45;;
28766;SDS011;15921;52.034;20.650;2023-02-04T06:22:53;17.15;;;8.10;;
28766;SDS011;15921;52.034;20.650;2023-02-04T06:25:19;15.30;;;7.65;;
28766;SDS011;15921;52.034;20.650;2023-02-04T06:27:45;18.08;;;8.50;;
28766;SDS011;15921;52.034;20.650;2023-02-04T06:30:11;16.40;;;7.68;;
28766;SDS011;15921;52.034;20.650;2023-02-04T06:32:38;15.95;;;6.93;;
28766;SDS011;15921;52.034;20.650;2023-02-04T06:35:03;18.13;;;7.82;;
28766;SDS011;15921;52.034;20.650;2023-02-04T06:37:29;18.55;;;8.10;;
28766;SDS011;15921;52.034;20.650;2023-02-04T06:39:55;16.02;;;8.20;;
28766;SDS011;15921;52.034;20.650;2023-02-04T06:42:22;24.50;;;8.65;;
28766;SDS011;15921;52.034;20.650;2023-02-04T06:44:49;16.40;;;8.10;;
28766;SDS011;15921;52.034;20.650;2023-02-04T06:47:15;23.33;;;9.48;;
28766;SDS011;15921;52.034;20.650;2023-02-04T06:49:41;17.60;;;8.60;;
28766;SDS011;15921;52.034;20.650;2023-02-04T06:52:06;18.58;;;8.38;;
28766;SDS011;15921;52.034;20.650;2023-02-04T06:54:32;17.15;;;9.02;;
28766;SDS011;15921;52.034;20.650;2023-02-04T06:56:58;18.60;;;8.73;;
28766;SDS011;15921;52.034;20.650;2023-02-04T06:59:31;18.50;;;8.43;;
28766;SDS011;15921;52.034;20.650;2023-02-04T07:02:00;22.23;;;9.23;;
28766;SDS011;15921;52.034;20.650;2023-02-04T07:04:27;16.98;;;8.30;;
28766;SDS011;15921;52.034;20.650;2023-02-04T07:06:52;19.00;;;8.18;;
28766;SDS011;15921;52.034;20.650;2023-02-04T07:09:18;18.85;;;7.88;;
28766;SDS011;15921;52.034;20.650;2023-02-04T07:11:44;20.50;;;7.82;;
28766;SDS011;15921;52.034;20.650;2023-02-04T07:14:10;22.00;;;8.93;;
28766;SDS011;15921;52.034;20.650;2023-02-04T07:16:36;22.10;;;8.35;;
28766;SDS011;15921;52.034;20.650;2023-02-04T07:19:01;19.05;;;7.68;;
28766;SDS011;15921;52.034;20.650;2023-02-04T07:21:28;21.70;;;7.78;;
28766;SDS011;15921;52.034;20.650;2023-02-04T07:23:53;20.45;;;8.18;;
28766;SDS011;15921;52.034;20.650;2023-02-04T07:26:19;18.63;;;8.15;;
28766;SDS011;15921;52.034;20.650;2023-02-04T07:28:45;21.42;;;8.23;;
28766;SDS011;15921;52.034;20.650;2023-02-04T07:31:11;26.08;;;8.02;;
28766;SDS011;15921;52.034;20.650;2023-02-04T07:33:36;16.63;;;7.38;;
28766;SDS011;15921;52.034;20.650;2023-02-04T07:36:02;15.40;;;6.55;;
28766;SDS011;15921;52.034;20.650;2023-02-04T07:38:28;15.60;;;6.75;;
28766;SDS011;15921;52.034;20.650;2023-02-04T07:40:54;18.92;;;6.40;;
28766;SDS011;15921;52.034;20.650;2023-02-04T07:43:20;19.70;;;6.95;;
28766;SDS011;15921;52.034;20.650;2023-02-04T07:45:46;13.77;;;6.60;;
28766;SDS011;15921;52.034;20.650;2023-02-04T07:48:11;15.57;;;6.22;;
28766;SDS011;15921;52.034;20.650;2023-02-04T07:50:37;14.20;;;5.78;;
28766;SDS011;15921;52.034;20.650;2023-02-04T07:53:03;13.30;;;5.70;;
28766;SDS011;15921;52.034;20.650;2023-02-04T07:55:28;11.43;;;5.03;;
28766;SDS011;15921;52.034;20.650;2023-02-04T07:57:54;14.60;;;6.00;;
28766;SDS011;15921;52.034;20.650;2023-02-04T08:00:20;13.35;;;5.72;;
28766;SDS011;15921;52.034;20.650;2023-02-04T08:02:46;11.88;;;5.53;;
28766;SDS011;15921;52.034;20.650;2023-02-04T08:05:12;10.93;;;5.35;;
28766;SDS011;15921;52.034;20.650;2023-02-04T08:07:38;9.13;;;4.70;;
28766;SDS011;15921;52.034;20.650;2023-02-04T08:10:04;11.63;;;5.15;;
28766;SDS011;15921;52.034;20.650;2023-02-04T08:12:30;13.65;;;5.47;;
28766;SDS011;15921;52.034;20.650;2023-02-04T08:14:56;12.27;;;5.20;;
28766;SDS011;15921;52.034;20.650;2023-02-04T08:17:22;13.68;;;5.57;;
28766;SDS011;15921;52.034;20.650;2023-02-04T08:19:48;13.93;;;5.13;;
28766;SDS011;15921;52.034;20.650;2023-02-04T08:22:13;12.57;;;4.95;;
28766;SDS011;15921;52.034;20.650;2023-02-04T08:24:39;10.68;;;5.07;;
28766;SDS011;15921;52.034;20.650;2023-02-04T08:27:05;13.80;;;4.47;;
28766;SDS011;15921;52.034;20.650;2023-02-04T08:29:30;12.55;;;4.93;;
28766;SDS011;15921;52.034;20.650;2023-02-04T08:31:56;12.30;;;4.30;;
28766;SDS011;15921;52.034;20.650;2023-02-04T08:34:22;7.63;;;3.80;;
28766;SDS011;15921;52.034;20.650;2023-02-04T08:36:47;8.50;;;4.32;;
28766;SDS011;15921;52.034;20.650;2023-02-04T08:39:13;7.15;;;3.80;;
28766;SDS011;15921;52.034;20.650;2023-02-04T08:41:39;10.60;;;4.10;;
28766;SDS011;15921;52.034;20.650;2023-02-04T08:44:04;9.35;;;4.18;;
28766;SDS011;15921;52.034;20.650;2023-02-04T08:46:30;10.63;;;4.28;;
28766;SDS011;15921;52.034;20.650;2023-02-04T08:48:56;10.50;;;4.05;;
28766;SDS011;15921;52.034;20.650;2023-02-04T08:51:22;14.40;;;4.40;;
28766;SDS011;15921;52.034;20.650;2023-02-04T08:53:48;8.40;;;4.28;;
28766;SDS011;15921;52.034;20.650;2023-02-04T08:56:13;8.52;;;3.83;;
28766;SDS011;15921;52.034;20.650;2023-02-04T08:58:44;8.18;;;4.20;;
28766;SDS011;15921;52.034;20.650;2023-02-04T09:01:12;9.40;;;4.30;;
28766;SDS011;15921;52.034;20.650;2023-02-04T09:03:38;8.77;;;3.63;;
28766;SDS011;15921;52.034;20.650;2023-02-04T09:06:04;9.55;;;4.30;;
28766;SDS011;15921;52.034;20.650;2023-02-04T09:08:31;9.77;;;4.03;;
28766;SDS011;15921;52.034;20.650;2023-02-04T09:10:57;8.93;;;4.18;;
28766;SDS011;15921;52.034;20.650;2023-02-04T09:13:23;8.35;;;3.70;;
28766;SDS011;15921;52.034;20.650;2023-02-04T09:15:48;10.65;;;4.10;;
28766;SDS011;15921;52.034;20.650;2023-02-04T09:18:15;8.85;;;4.30;;
28766;SDS011;15921;52.034;20.650;2023-02-04T09:20:44;8.32;;;3.60;;
28766;SDS011;15921;52.034;20.650;2023-02-04T09:23:10;11.35;;;3.92;;
28766;SDS011;15921;52.034;20.650;2023-02-04T09:25:40;7.32;;;3.50;;
28766;SDS011;15921;52.034;20.650;2023-02-04T09:28:08;8.52;;;3.45;;
28766;SDS011;15921;52.034;20.650;2023-02-04T09:30:35;7.68;;;3.28;;
28766;SDS011;15921;52.034;20.650;2023-02-04T09:33:04;7.88;;;3.05;;
28766;SDS011;15921;52.034;20.650;2023-02-04T09:35:30;10.65;;;4.18;;
28766;SDS011;15921;52.034;20.650;2023-02-04T09:37:56;8.43;;;3.60;;
28766;SDS011;15921;52.034;20.650;2023-02-04T09:40:22;12.50;;;4.03;;
28766;SDS011;15921;52.034;20.650;2023-02-04T09:42:51;11.13;;;3.65;;
28766;SDS011;15921;52.034;20.650;2023-02-04T09:45:19;7.65;;;3.38;;
28766;SDS011;15921;52.034;20.650;2023-02-04T09:47:52;9.73;;;3.92;;
28766;SDS011;15921;52.034;20.650;2023-02-04T09:50:19;9.88;;;4.28;;
28766;SDS011;15921;52.034;20.650;2023-02-04T09:52:48;11.35;;;4.30;;
28766;SDS011;15921;52.034;20.650;2023-02-04T09:55:17;11.65;;;4.57;;
28766;SDS011;15921;52.034;20.650;2023-02-04T09:57:46;11.07;;;4.45;;
28766;SDS011;15921;52.034;20.650;2023-02-04T10:00:19;11.50;;;4.47;;
28766;SDS011;15921;52.034;20.650;2023-02-04T10:02:47;14.40;;;4.30;;
28766;SDS011;15921;52.034;20.650;2023-02-04T10:05:13;10.40;;;4.22;;
28766;SDS011;15921;52.034;20.650;2023-02-04T10:07:41;10.07;;;4.75;;
28766;SDS011;15921;52.034;20.650;2023-02-04T10:10:17;7.40;;;4.35;;
28766;SDS011;15921;52.034;20.650;2023-02-04T10:12:49;9.95;;;4.22;;
28766;SDS011;15921;52.034;20.650;2023-02-04T10:15:18;10.38;;;5.13;;
28766;SDS011;15921;52.034;20.650;2023-02-04T10:17:47;10.75;;;5.15;;
28766;SDS011;15921;52.034;20.650;2023-02-04T10:20:17;10.52;;;4.68;;
28766;SDS011;15921;52.034;20.650;2023-02-04T10:22:48;12.52;;;4.45;;
28766;SDS011;15921;52.034;20.650;2023-02-04T10:25:18;11.88;;;5.03;;
28766;SDS011;15921;52.034;20.650;2023-02-04T10:27:55;10.35;;;5.05;;
28766;SDS011;15921;52.034;20.650;2023-02-04T10:30:24;10.82;;;4.40;;
28766;SDS011;15921;52.034;20.650;2023-02-04T10:32:52;10.57;;;4.47;;
28766;SDS011;15921;52.034;20.650;2023-02-04T10:35:19;12.15;;;4.78;;
28766;SDS011;15921;52.034;20.650;2023-02-04T10:37:46;12.82;;;5.35;;
28766;SDS011;15921;52.034;20.650;2023-02-04T10:43:09;13.43;;;5.13;;
28766;SDS011;15921;52.034;20.650;2023-02-04T10:45:43;14.52;;;5.78;;
28766;SDS011;15921;52.034;20.650;2023-02-04T10:48:17;15.85;;;5.00;;
28766;SDS011;15921;52.034;20.650;2023-02-04T10:50:46;11.25;;;4.90;;
28766;SDS011;15921;52.034;20.650;2023-02-04T10:53:17;9.70;;;4.53;;
28766;SDS011;15921;52.034;20.650;2023-02-04T10:56:04;10.63;;;4.47;;
28766;SDS011;15921;52.034;20.650;2023-02-04T10:58:37;10.15;;;4.35;;
28766;SDS011;15921;52.034;20.650;2023-02-04T11:01:07;12.93;;;4.85;;
28766;SDS011;15921;52.034;20.650;2023-02-04T11:03:38;15.10;;;5.20;;
28766;SDS011;15921;52.034;20.650;2023-02-04T11:06:11;9.95;;;5.00;;
28766;SDS011;15921;52.034;20.650;2023-02-04T11:08:41;11.23;;;4.72;;
28766;SDS011;15921;52.034;20.650;2023-02-04T11:11:08;13.93;;;4.85;;
28766;SDS011;15921;52.034;20.650;2023-02-04T11:18:44;19.52;;;7.25;;
28766;SDS011;15921;52.034;20.650;2023-02-04T11:21:22;13.60;;;5.80;;
28766;SDS011;15921;52.034;20.650;2023-02-04T11:39:36;15.10;;;6.15;;
28766;SDS011;15921;52.034;20.650;2023-02-04T11:42:04;9.75;;;5.03;;
28766;SDS011;15921;52.034;20.650;2023-02-04T11:44:30;15.70;;;4.95;;
28766;SDS011;15921;52.034;20.650;2023-02-04T11:46:57;11.63;;;5.22;;
28766;SDS011;15921;52.034;20.650;2023-02-04T11:49:25;12.50;;;5.18;;
28766;SDS011;15921;52.034;20.650;2023-02-04T11:52:01;14.68;;;6.00;;
28766;SDS011;15921;52.034;20.650;2023-02-04T11:54:32;12.10;;;5.28;;
28766;SDS011;15921;52.034;20.650;2023-02-04T11:56:59;9.30;;;4.22;;
28766;SDS011;15921;52.034;20.650;2023-02-04T11:59:25;12.60;;;5.15;;
28766;SDS011;15921;52.034;20.650;2023-02-04T12:02:01;10.75;;;4.47;;
28766;SDS011;15921;52.034;20.650;2023-02-04T12:04:51;10.77;;;4.97;;
28766;SDS011;15921;52.034;20.650;2023-02-04T12:07:28;9.38;;;4.70;;
28766;SDS011;15921;52.034;20.650;2023-02-04T12:12:27;8.52;;;4.25;;
28766;SDS011;15921;52.034;20.650;2023-02-04T12:15:00;11.30;;;4.95;;
28766;SDS011;15921;52.034;20.650;2023-02-04T12:17:29;11.15;;;4.80;;
28766;SDS011;15921;52.034;20.650;2023-02-04T12:19:54;16.83;;;5.60;;
28766;SDS011;15921;52.034;20.650;2023-02-04T12:22:20;11.48;;;4.78;;
28766;SDS011;15921;52.034;20.650;2023-02-04T12:24:46;11.80;;;5.32;;
28766;SDS011;15921;52.034;20.650;2023-02-04T12:27:11;13.15;;;5.20;;
28766;SDS011;15921;52.034;20.650;2023-02-04T12:29:37;9.75;;;5.03;;
28766;SDS011;15921;52.034;20.650;2023-02-04T12:32:03;10.38;;;4.65;;
28766;SDS011;15921;52.034;20.650;2023-02-04T12:34:28;12.77;;;4.95;;
28766;SDS011;15921;52.034;20.650;2023-02-04T12:36:54;14.25;;;5.75;;
28766;SDS011;15921;52.034;20.650;2023-02-04T12:39:20;13.35;;;4.85;;
28766;SDS011;15921;52.034;20.650;2023-02-04T12:41:45;10.63;;;4.90;;
28766;SDS011;15921;52.034;20.650;2023-02-04T12:44:11;10.57;;;5.75;;
28766;SDS011;15921;52.034;20.650;2023-02-04T12:46:37;10.80;;;4.97;;
28766;SDS011;15921;52.034;20.650;2023-02-04T12:49:03;12.82;;;5.22;;
28766;SDS011;15921;52.034;20.650;2023-02-04T12:51:29;11.63;;;4.88;;
28766;SDS011;15921;52.034;20.650;2023-02-04T12:53:55;13.43;;;5.43;;
28766;SDS011;15921;52.034;20.650;2023-02-04T12:56:20;14.45;;;5.43;;
28766;SDS011;15921;52.034;20.650;2023-02-04T12:58:48;14.25;;;4.88;;
28766;SDS011;15921;52.034;20.650;2023-02-04T13:01:13;13.65;;;5.70;;
28766;SDS011;15921;52.034;20.650;2023-02-04T13:03:39;11.02;;;4.60;;
28766;SDS011;15921;52.034;20.650;2023-02-04T13:06:05;14.93;;;5.60;;
28766;SDS011;15921;52.034;20.650;2023-02-04T13:08:30;10.57;;;5.10;;
28766;SDS011;15921;52.034;20.650;2023-02-04T13:10:56;10.57;;;5.15;;
28766;SDS011;15921;52.034;20.650;2023-02-04T13:13:21;11.75;;;5.25;;
28766;SDS011;15921;52.034;20.650;2023-02-04T13:15:47;11.32;;;5.13;;
28766;SDS011;15921;52.034;20.650;2023-02-04T13:18:13;12.82;;;5.50;;
28766;SDS011;15921;52.034;20.650;2023-02-04T13:20:39;15.52;;;6.22;;
28766;SDS011;15921;52.034;20.650;2023-02-04T13:23:06;9.15;;;5.15;;
28766;SDS011;15921;52.034;20.650;2023-02-04T13:25:32;12.85;;;5.53;;
28766;SDS011;15921;52.034;20.650;2023-02-04T13:27:58;13.02;;;5.55;;
28766;SDS011;15921;52.034;20.650;2023-02-04T13:30:23;14.25;;;5.35;;
28766;SDS011;15921;52.034;20.650;2023-02-04T13:32:49;14.10;;;5.78;;
28766;SDS011;15921;52.034;20.650;2023-02-04T13:35:14;13.10;;;5.70;;
28766;SDS011;15921;52.034;20.650;2023-02-04T13:37:40;14.55;;;5.75;;
28766;SDS011;15921;52.034;20.650;2023-02-04T13:40:06;11.85;;;5.53;;
28766;SDS011;15921;52.034;20.650;2023-02-04T13:42:33;14.15;;;5.72;;
28766;SDS011;15921;52.034;20.650;2023-02-04T13:44:59;13.30;;;5.45;;
28766;SDS011;15921;52.034;20.650;2023-02-04T13:47:25;12.90;;;6.07;;
28766;SDS011;15921;52.034;20.650;2023-02-04T13:49:50;13.27;;;6.10;;
28766;SDS011;15921;52.034;20.650;2023-02-04T13:52:16;10.10;;;5.43;;
28766;SDS011;15921;52.034;20.650;2023-02-04T13:54:46;16.58;;;9.30;;
28766;SDS011;15921;52.034;20.650;2023-02-04T13:57:11;13.15;;;6.10;;
28766;SDS011;15921;52.034;20.650;2023-02-04T13:59:37;12.93;;;6.43;;
28766;SDS011;15921;52.034;20.650;2023-02-04T14:02:03;10.63;;;5.55;;
28766;SDS011;15921;52.034;20.650;2023-02-04T14:04:28;14.43;;;6.25;;
28766;SDS011;15921;52.034;20.650;2023-02-04T14:06:54;11.07;;;5.90;;
28766;SDS011;15921;52.034;20.650;2023-02-04T14:09:20;15.43;;;5.40;;
28766;SDS011;15921;52.034;20.650;2023-02-04T14:11:46;13.95;;;6.45;;
28766;SDS011;15921;52.034;20.650;2023-02-04T14:14:12;12.82;;;6.00;;
28766;SDS011;15921;52.034;20.650;2023-02-04T14:16:38;21.27;;;7.97;;
28766;SDS011;15921;52.034;20.650;2023-02-04T14:19:04;17.70;;;8.18;;
28766;SDS011;15921;52.034;20.650;2023-02-04T14:21:30;26.33;;;11.27;;
28766;SDS011;15921;52.034;20.650;2023-02-04T14:23:56;28.73;;;10.73;;
28766;SDS011;15921;52.034;20.650;2023-02-04T14:26:21;18.38;;;7.60;;
28766;SDS011;15921;52.034;20.650;2023-02-04T14:28:47;16.30;;;6.50;;
28766;SDS011;15921;52.034;20.650;2023-02-04T14:31:13;15.73;;;6.43;;
28766;SDS011;15921;52.034;20.650;2023-02-04T14:33:38;11.63;;;6.20;;
28766;SDS011;15921;52.034;20.650;2023-02-04T14:36:04;13.98;;;6.03;;
28766;SDS011;15921;52.034;20.650;2023-02-04T14:38:30;15.18;;;5.93;;
28766;SDS011;15921;52.034;20.650;2023-02-04T14:40:57;14.98;;;6.25;;
28766;SDS011;15921;52.034;20.650;2023-02-04T14:43:23;15.52;;;6.40;;
28766;SDS011;15921;52.034;20.650;2023-02-04T14:45:50;13.88;;;6.40;;
28766;SDS011;15921;52.034;20.650;2023-02-04T14:48:16;19.25;;;6.38;;